createdAt,value
2017-09-09T00:00:46.348Z,0.00
2017-09-09T00:01:46.331Z,0.00
2017-09-09T00:02:46.323Z,0.00
2017-09-09T00:03:46.306Z,0.00
2017-09-09T00:04:46.293Z,0.00
2017-09-09T00:05:46.284Z,0.00
2017-09-09T00:06:46.271Z,0.00
2017-09-09T00:07:46.258Z,0.00
2017-09-09T00:08:46.248Z,0.00
2017-09-09T00:09:46.228Z,0.00
2017-09-09T00:10:46.223Z,0.00
2017-09-09T00:11:46.200Z,0.00
2017-09-09T00:12:46.190Z,0.00
2017-09-09T00:13:46.176Z,0.00
2017-09-09T00:14:46.167Z,0.00
2017-09-09T00:15:46.150Z,0.00
2017-09-09T00:16:46.131Z,0.00
2017-09-09T00:17:46.121Z,0.00
2017-09-09T00:18:46.109Z,0.00
2017-09-09T00:19:46.102Z,0.00
2017-09-09T00:20:46.089Z,0.00
2017-09-09T00:21:46.070Z,0.00
2017-09-09T00:22:46.061Z,0.00
2017-09-09T00:23:46.048Z,0.00
2017-09-09T00:24:46.032Z,0.00
2017-09-09T00:25:46.020Z,0.00
2017-09-09T00:26:46.002Z,0.00
2017-09-09T00:27:46.002Z,0.00
2017-09-09T00:28:45.980Z,0.00
2017-09-09T00:29:45.967Z,0.00
2017-09-09T00:30:45.951Z,0.00
2017-09-09T00:31:45.939Z,0.00
2017-09-09T00:32:45.930Z,0.00
2017-09-09T00:33:45.910Z,0.00
2017-09-09T00:34:45.901Z,0.00
2017-09-09T00:35:45.894Z,0.00
2017-09-09T00:36:45.882Z,0.00
2017-09-09T00:37:45.862Z,0.00
2017-09-09T00:38:45.852Z,0.00
2017-09-09T00:39:45.839Z,0.00
2017-09-09T00:40:45.817Z,0.00
2017-09-09T00:41:45.812Z,0.00
2017-09-09T00:42:45.790Z,0.00
2017-09-09T00:43:45.789Z,0.00
2017-09-09T00:44:45.773Z,0.00
2017-09-09T00:45:45.758Z,0.00
2017-09-09T00:46:45.742Z,0.00
2017-09-09T00:47:45.729Z,0.00
2017-09-09T00:48:45.720Z,0.00
2017-09-09T00:49:45.716Z,0.00
2017-09-09T00:50:45.694Z,0.00
2017-09-09T00:51:45.679Z,0.00
2017-09-09T00:52:45.662Z,0.00
2017-09-09T00:53:45.659Z,0.00
2017-09-09T00:54:45.633Z,0.00
2017-09-09T00:55:45.627Z,0.00
2017-09-09T00:56:45.610Z,0.00
2017-09-09T00:57:45.601Z,0.00
2017-09-09T00:58:45.585Z,0.00
2017-09-09T00:59:45.581Z,0.00
2017-09-09T01:00:45.562Z,0.00
2017-09-09T01:01:45.549Z,0.00
2017-09-09T01:02:45.537Z,0.00
2017-09-09T01:03:45.517Z,0.00
2017-09-09T01:04:45.505Z,0.00
2017-09-09T01:05:45.498Z,0.00
2017-09-09T01:06:45.483Z,0.00
2017-09-09T01:07:45.466Z,0.00
2017-09-09T01:08:45.448Z,0.00
2017-09-09T01:09:45.438Z,0.00
2017-09-09T01:10:45.425Z,0.00
2017-09-09T01:11:45.419Z,0.00
2017-09-09T01:12:45.405Z,0.00
2017-09-09T01:13:45.394Z,0.00
2017-09-09T01:14:45.377Z,0.00
2017-09-09T01:15:45.374Z,0.00
2017-09-09T01:16:45.354Z,0.00
2017-09-09T01:17:45.341Z,0.00
2017-09-09T01:18:45.331Z,0.00
2017-09-09T01:19:45.312Z,0.00
2017-09-09T01:20:45.299Z,0.00
2017-09-09T01:21:45.290Z,0.00
2017-09-09T01:22:45.280Z,0.00
2017-09-09T01:23:45.257Z,0.00
2017-09-09T01:24:45.243Z,0.00
2017-09-09T01:25:45.235Z,0.00
2017-09-09T01:26:45.220Z,0.00
2017-09-09T01:27:45.206Z,0.00
2017-09-09T01:28:45.193Z,0.00
2017-09-09T01:29:45.178Z,0.00
2017-09-09T01:30:45.170Z,0.00
2017-09-09T01:31:45.155Z,0.00
2017-09-09T01:32:45.142Z,0.00
2017-09-09T01:33:45.120Z,0.00
2017-09-09T01:34:45.120Z,0.00
2017-09-09T01:35:45.100Z,0.00
2017-09-09T01:36:45.085Z,0.00
2017-09-09T01:37:45.075Z,0.00
2017-09-09T01:38:45.066Z,0.00
2017-09-09T01:39:45.046Z,0.00
2017-09-09T01:40:45.033Z,0.00
2017-09-09T01:41:45.024Z,0.00
2017-09-09T01:42:45.009Z,0.00
2017-09-09T01:43:44.997Z,0.00
2017-09-09T01:44:44.981Z,0.00
2017-09-09T01:45:44.974Z,0.00
2017-09-09T01:46:44.958Z,0.00
2017-09-09T01:47:44.942Z,0.00
2017-09-09T01:48:44.929Z,0.00
2017-09-09T01:49:44.923Z,0.00
2017-09-09T01:50:44.910Z,0.00
2017-09-09T01:51:44.894Z,0.00
2017-09-09T01:52:44.878Z,0.00
2017-09-09T01:53:44.872Z,0.00
2017-09-09T01:54:44.853Z,0.00
2017-09-09T01:55:44.836Z,0.00
2017-09-09T01:56:44.831Z,0.00
2017-09-09T01:57:44.817Z,0.00
2017-09-09T01:58:44.801Z,0.00
2017-09-09T01:59:44.785Z,0.00
2017-09-09T02:00:44.776Z,0.00
2017-09-09T02:01:44.772Z,0.00
2017-09-09T02:02:44.750Z,0.00
2017-09-09T02:03:44.737Z,0.00
2017-09-09T02:04:44.728Z,0.00
2017-09-09T02:05:44.709Z,0.00
2017-09-09T02:06:44.703Z,0.00
2017-09-09T02:07:44.685Z,0.00
2017-09-09T02:08:44.674Z,0.00
2017-09-09T02:09:44.655Z,0.00
2017-09-09T02:10:44.644Z,0.00
2017-09-09T02:11:44.635Z,0.00
2017-09-09T02:12:44.620Z,0.00
2017-09-09T02:13:44.604Z,0.00
2017-09-09T02:14:44.594Z,0.00
2017-09-09T02:15:44.578Z,0.00
2017-09-09T02:16:44.558Z,0.00
2017-09-09T02:17:44.552Z,0.00
2017-09-09T02:18:44.539Z,0.00
2017-09-09T02:19:44.530Z,0.00
2017-09-09T02:20:44.517Z,0.00
2017-09-09T02:21:44.515Z,0.00
2017-09-09T02:22:44.486Z,0.00
2017-09-09T02:23:44.478Z,0.00
2017-09-09T02:24:44.465Z,0.00
2017-09-09T02:25:44.450Z,0.00
2017-09-09T02:26:44.450Z,0.00
2017-09-09T02:27:44.422Z,0.00
2017-09-09T02:28:44.409Z,0.00
2017-09-09T02:29:44.396Z,0.00
2017-09-09T02:30:44.383Z,0.00
2017-09-09T02:31:44.380Z,0.00
2017-09-09T02:32:44.357Z,0.00
2017-09-09T02:33:44.343Z,0.00
2017-09-09T02:34:44.323Z,0.00
2017-09-09T02:35:44.320Z,0.00
2017-09-09T02:36:44.310Z,0.00
2017-09-09T02:37:44.294Z,0.00
2017-09-09T02:38:44.281Z,0.00
2017-09-09T02:39:44.271Z,0.00
2017-09-09T02:40:44.253Z,0.00
2017-09-09T02:41:44.237Z,0.00
2017-09-09T02:42:44.250Z,0.00
2017-09-09T02:43:44.220Z,0.00
2017-09-09T02:44:44.202Z,0.00
2017-09-09T02:45:44.189Z,0.00
2017-09-09T02:46:44.173Z,0.00
2017-09-09T02:47:44.161Z,0.00
2017-09-09T02:48:44.147Z,0.00
2017-09-09T02:49:44.138Z,0.00
2017-09-09T02:50:44.125Z,0.00
2017-09-09T02:51:44.112Z,0.00
2017-09-09T02:52:44.096Z,0.00
2017-09-09T02:53:44.084Z,0.00
2017-09-09T02:54:44.072Z,0.00
2017-09-09T02:55:44.058Z,0.00
2017-09-09T02:56:44.051Z,0.00
2017-09-09T02:57:44.032Z,0.00
2017-09-09T02:58:44.019Z,0.00
2017-09-09T02:59:44.005Z,0.00
2017-09-09T03:00:43.990Z,0.00
2017-09-09T03:01:43.976Z,0.00
2017-09-09T03:02:43.964Z,0.00
2017-09-09T03:03:43.953Z,0.00
2017-09-09T03:04:43.944Z,0.00
2017-09-09T03:05:43.935Z,0.00
2017-09-09T03:06:43.915Z,0.00
2017-09-09T03:07:43.900Z,0.00
2017-09-09T03:08:43.887Z,0.00
2017-09-09T03:09:43.871Z,0.00
2017-09-09T03:10:43.864Z,0.00
2017-09-09T03:11:43.854Z,0.00
2017-09-09T03:12:43.836Z,0.00
2017-09-09T03:13:43.822Z,0.00
2017-09-09T03:14:43.807Z,0.00
2017-09-09T03:15:43.802Z,0.00
2017-09-09T03:16:43.779Z,0.00
2017-09-09T03:17:43.767Z,0.00
2017-09-09T03:18:43.756Z,0.00
2017-09-09T03:19:43.747Z,0.00
2017-09-09T03:20:43.731Z,0.00
2017-09-09T03:21:43.715Z,0.00
2017-09-09T03:22:43.703Z,0.00
2017-09-09T03:23:43.693Z,0.00
2017-09-09T03:24:43.677Z,0.00
2017-09-09T03:25:43.662Z,0.00
2017-09-09T03:26:43.651Z,0.00
2017-09-09T03:27:43.641Z,0.00
2017-09-09T03:28:43.619Z,0.00
2017-09-09T03:29:43.654Z,0.00
2017-09-09T03:30:43.600Z,0.00
2017-09-09T03:31:43.608Z,0.00
2017-09-09T03:32:43.596Z,0.00
2017-09-09T03:33:43.558Z,0.00
2017-09-09T03:34:43.548Z,0.00
2017-09-09T03:35:43.561Z,0.00
2017-09-09T03:36:43.513Z,0.00
2017-09-09T03:37:43.511Z,0.00
2017-09-09T03:38:43.490Z,0.00
2017-09-09T03:39:43.481Z,0.00
2017-09-09T03:40:43.472Z,0.00
2017-09-09T03:41:43.449Z,0.00
2017-09-09T03:42:43.436Z,0.00
2017-09-09T03:43:43.426Z,0.00
2017-09-09T03:44:43.412Z,0.00
2017-09-09T03:45:43.400Z,0.00
2017-09-09T03:46:43.387Z,0.00
2017-09-09T03:47:43.374Z,0.00
2017-09-09T03:48:43.361Z,0.00
2017-09-09T03:49:43.342Z,0.00
2017-09-09T03:50:43.336Z,0.00
2017-09-09T03:51:43.322Z,0.00
2017-09-09T03:52:43.304Z,0.00
2017-09-09T03:53:43.291Z,0.00
2017-09-09T03:54:43.279Z,0.00
2017-09-09T03:55:43.265Z,0.00
2017-09-09T03:56:43.259Z,0.00
2017-09-09T03:57:43.246Z,0.00
2017-09-09T03:58:43.227Z,0.00
2017-09-09T03:59:43.216Z,0.00
2017-09-09T04:00:43.205Z,0.00
2017-09-09T04:01:43.201Z,0.00
2017-09-09T04:02:43.175Z,0.00
2017-09-09T04:03:43.162Z,0.00
2017-09-09T04:04:43.149Z,0.00
2017-09-09T04:05:43.134Z,0.00
2017-09-09T04:06:43.118Z,0.00
2017-09-09T04:07:43.109Z,0.00
2017-09-09T04:08:43.105Z,0.00
2017-09-09T04:09:43.080Z,0.00
2017-09-09T04:10:43.073Z,0.00
2017-09-09T04:11:43.054Z,0.00
2017-09-09T04:12:43.047Z,0.00
2017-09-09T04:13:43.028Z,0.00
2017-09-09T04:14:43.016Z,0.00
2017-09-09T04:15:43.002Z,0.00
2017-09-09T04:16:42.989Z,0.00
2017-09-09T04:17:42.976Z,0.00
2017-09-09T04:18:42.958Z,0.00
2017-09-09T04:19:42.951Z,0.00
2017-09-09T04:20:42.939Z,0.00
2017-09-09T04:21:42.926Z,0.00
2017-09-09T04:22:42.913Z,0.00
2017-09-09T04:23:42.893Z,0.00
2017-09-09T04:24:42.885Z,0.00
2017-09-09T04:25:42.871Z,0.00
2017-09-09T04:26:42.863Z,0.00
2017-09-09T04:27:42.842Z,0.00
2017-09-09T04:28:42.835Z,0.00
2017-09-09T04:29:42.823Z,0.00
2017-09-09T04:30:42.806Z,0.00
2017-09-09T04:31:42.791Z,0.00
2017-09-09T04:32:42.781Z,0.00
2017-09-09T04:33:42.762Z,0.00
2017-09-09T04:34:42.752Z,0.00
2017-09-09T04:35:42.736Z,0.00
2017-09-09T04:36:42.730Z,0.00
2017-09-09T04:37:42.714Z,4.00
2017-09-09T04:38:42.699Z,0.00
2017-09-09T04:39:42.692Z,4.00
2017-09-09T04:40:42.679Z,8.00
2017-09-09T04:41:42.662Z,4.00
2017-09-09T04:42:42.649Z,4.00
2017-09-09T04:43:42.640Z,8.00
2017-09-09T04:44:42.623Z,8.00
2017-09-09T04:45:42.610Z,12.00
2017-09-09T04:46:42.599Z,12.00
2017-09-09T04:47:42.581Z,16.00
2017-09-09T04:48:42.567Z,12.00
2017-09-09T04:49:42.553Z,16.00
2017-09-09T04:50:42.542Z,16.00
2017-09-09T04:51:42.533Z,16.00
2017-09-09T04:52:42.514Z,20.00
2017-09-09T04:53:42.507Z,20.00
2017-09-09T04:54:42.493Z,20.00
2017-09-09T04:55:42.478Z,20.00
2017-09-09T04:56:42.459Z,20.00
2017-09-09T04:57:42.453Z,24.00
2017-09-09T04:58:42.440Z,24.00
2017-09-09T04:59:42.420Z,28.00
2017-09-09T05:00:42.402Z,32.00
2017-09-09T05:01:42.402Z,32.00
2017-09-09T05:02:42.393Z,28.00
2017-09-09T05:03:42.373Z,36.00
2017-09-09T05:04:42.361Z,32.00
2017-09-09T05:05:42.347Z,36.00
2017-09-09T05:06:42.338Z,36.00
2017-09-09T05:07:42.316Z,36.00
2017-09-09T05:08:42.305Z,40.00
2017-09-09T05:09:42.299Z,48.00
2017-09-09T05:10:42.280Z,52.00
2017-09-09T05:11:42.265Z,48.00
2017-09-09T05:12:42.256Z,48.00
2017-09-09T05:13:42.235Z,48.00
2017-09-09T05:14:42.223Z,48.00
2017-09-09T05:15:42.216Z,48.00
2017-09-09T05:16:42.207Z,44.00
2017-09-09T05:17:42.185Z,44.00
2017-09-09T05:18:42.173Z,40.00
2017-09-09T05:19:42.169Z,40.00
2017-09-09T05:20:42.150Z,36.00
2017-09-09T05:21:42.137Z,40.00
2017-09-09T05:22:42.123Z,36.00
2017-09-09T05:23:42.111Z,40.00
2017-09-09T05:24:42.098Z,44.00
2017-09-09T05:25:42.082Z,44.00
2017-09-09T05:26:42.066Z,44.00
2017-09-09T05:27:42.061Z,40.00
2017-09-09T05:28:42.041Z,40.00
2017-09-09T05:29:42.028Z,40.00
2017-09-09T05:30:42.016Z,36.00
2017-09-09T05:31:42.009Z,36.00
2017-09-09T05:32:41.990Z,32.00
2017-09-09T05:33:41.980Z,36.00
2017-09-09T05:34:41.965Z,44.00
2017-09-09T05:35:41.952Z,52.00
2017-09-09T05:36:41.936Z,64.00
2017-09-09T05:37:41.923Z,76.00
2017-09-09T05:38:41.916Z,84.00
2017-09-09T05:39:41.894Z,100.00
2017-09-09T05:40:41.884Z,104.00
2017-09-09T05:41:41.876Z,112.00
2017-09-09T05:42:41.859Z,128.00
2017-09-09T05:43:41.853Z,152.00
2017-09-09T05:44:41.833Z,176.00
2017-09-09T05:45:41.816Z,204.00
2017-09-09T05:46:41.803Z,224.00
2017-09-09T05:47:41.795Z,264.00
2017-09-09T05:48:41.780Z,304.00
2017-09-09T05:49:41.768Z,308.00
2017-09-09T05:50:41.751Z,300.00
2017-09-09T05:51:41.738Z,276.00
2017-09-09T05:52:41.731Z,228.00
2017-09-09T05:53:41.720Z,244.00
2017-09-09T05:54:41.700Z,292.00
2017-09-09T05:55:41.687Z,352.00
2017-09-09T05:56:41.671Z,396.00
2017-09-09T05:57:41.662Z,412.00
2017-09-09T05:58:41.649Z,336.00
2017-09-09T05:59:41.633Z,304.00
2017-09-09T06:00:41.621Z,296.00
2017-09-09T06:01:41.603Z,260.00
2017-09-09T06:02:41.593Z,256.00
2017-09-09T06:03:41.585Z,252.00
2017-09-09T06:04:41.561Z,296.00
2017-09-09T06:05:41.549Z,344.00
2017-09-09T06:06:41.542Z,428.00
2017-09-09T06:07:41.522Z,468.00
2017-09-09T06:08:41.513Z,596.00
2017-09-09T06:09:41.500Z,572.00
2017-09-09T06:10:41.492Z,580.00
2017-09-09T06:11:41.477Z,624.00
2017-09-09T06:12:41.460Z,692.00
2017-09-09T06:13:41.445Z,728.00
2017-09-09T06:14:41.435Z,736.00
2017-09-09T06:15:41.424Z,736.00
2017-09-09T06:16:41.405Z,744.00
2017-09-09T06:17:41.396Z,724.00
2017-09-09T06:18:41.377Z,712.00
2017-09-09T06:19:41.364Z,736.00
2017-09-09T06:20:41.348Z,720.00
2017-09-09T06:21:41.335Z,708.00
2017-09-09T06:22:41.325Z,700.00
2017-09-09T06:23:41.315Z,756.00
2017-09-09T06:24:41.297Z,912.00
2017-09-09T06:25:41.281Z,1024.00
2017-09-09T06:26:41.277Z,1056.00
2017-09-09T06:27:41.257Z,916.00
2017-09-09T06:28:41.246Z,880.00
2017-09-09T06:29:41.229Z,1084.00
2017-09-09T06:30:41.223Z,1252.00
2017-09-09T06:31:41.203Z,1288.00
2017-09-09T06:32:41.187Z,1348.00
2017-09-09T06:33:41.172Z,1212.00
2017-09-09T06:34:41.160Z,1048.00
2017-09-09T06:35:41.146Z,888.00
2017-09-09T06:36:41.139Z,844.00
2017-09-09T06:37:41.120Z,980.00
2017-09-09T06:38:41.237Z,1232.00
2017-09-09T06:39:41.091Z,1492.00
2017-09-09T06:40:41.082Z,1820.00
2017-09-09T06:41:41.068Z,2024.00
2017-09-09T06:42:41.053Z,2036.00
2017-09-09T06:43:41.041Z,1880.00
2017-09-09T06:44:41.024Z,1864.00
2017-09-09T06:45:41.013Z,2160.00
2017-09-09T06:46:40.997Z,2404.00
2017-09-09T06:47:40.981Z,2568.00
2017-09-09T06:48:40.972Z,2784.00
2017-09-09T06:49:40.962Z,3016.00
2017-09-09T06:50:40.946Z,2736.00
2017-09-09T06:51:40.927Z,2220.00
2017-09-09T06:52:40.959Z,1860.00
2017-09-09T06:53:40.905Z,1688.00
2017-09-09T06:54:40.889Z,1616.00
2017-09-09T06:55:40.891Z,1752.00
2017-09-09T06:56:40.863Z,2076.00
2017-09-09T06:57:40.843Z,2516.00
2017-09-09T06:58:40.834Z,2536.00
2017-09-09T06:59:40.814Z,2488.00
2017-09-09T07:00:40.831Z,2552.00
2017-09-09T07:01:40.793Z,2620.00
2017-09-09T07:02:40.779Z,2764.00
2017-09-09T07:03:40.818Z,2996.00
2017-09-09T07:04:40.798Z,3308.00
2017-09-09T07:05:40.755Z,3320.00
2017-09-09T07:06:40.729Z,3668.00
2017-09-09T07:07:40.708Z,4084.00
2017-09-09T07:08:40.700Z,4372.00
2017-09-09T07:09:40.684Z,4592.00
2017-09-09T07:10:40.667Z,4724.00
2017-09-09T07:11:40.655Z,4564.00
2017-09-09T07:12:40.686Z,4292.00
2017-09-09T07:13:40.624Z,3884.00
2017-09-09T07:14:40.612Z,3888.00
2017-09-09T07:15:40.598Z,3760.00
2017-09-09T07:16:40.796Z,3672.00
2017-09-09T07:17:41.324Z,3616.00
2017-09-09T07:18:40.560Z,3624.00
2017-09-09T07:19:40.540Z,3552.00
2017-09-09T07:20:40.825Z,3564.00
2017-09-09T07:21:40.524Z,3568.00
2017-09-09T07:22:40.507Z,3712.00
2017-09-09T07:23:40.485Z,3772.00
2017-09-09T07:24:40.479Z,3912.00
2017-09-09T07:25:40.476Z,3920.00
2017-09-09T07:26:40.446Z,3996.00
2017-09-09T07:27:40.433Z,4180.00
2017-09-09T07:28:40.428Z,4328.00
2017-09-09T07:29:40.404Z,4420.00
2017-09-09T07:30:40.397Z,4384.00
2017-09-09T07:31:40.381Z,4228.00
2017-09-09T07:32:40.362Z,4284.00
2017-09-09T07:33:40.344Z,4460.00
2017-09-09T07:34:40.337Z,4864.00
2017-09-09T07:35:40.320Z,5124.00
2017-09-09T07:36:40.311Z,5444.00
2017-09-09T07:37:40.292Z,5476.00
2017-09-09T07:38:40.286Z,5560.00
2017-09-09T07:39:40.263Z,5688.00
2017-09-09T07:40:40.247Z,6020.00
2017-09-09T07:41:40.238Z,6180.00
2017-09-09T07:42:40.231Z,6388.00
2017-09-09T07:43:40.214Z,6924.00
2017-09-09T07:44:40.214Z,7012.00
2017-09-09T07:45:40.185Z,6916.00
2017-09-09T07:46:40.178Z,6764.00
2017-09-09T07:47:40.179Z,6420.00
2017-09-09T07:48:40.140Z,6224.00
2017-09-09T07:49:40.142Z,5796.00
2017-09-09T07:50:40.117Z,5304.00
2017-09-09T07:51:40.114Z,4932.00
2017-09-09T07:52:40.079Z,4512.00
2017-09-09T07:53:40.079Z,4192.00
2017-09-09T07:54:40.060Z,4164.00
2017-09-09T07:55:40.049Z,3884.00
2017-09-09T07:56:40.032Z,3764.00
2017-09-09T07:57:40.020Z,3524.00
2017-09-09T07:58:40.006Z,3628.00
2017-09-09T07:59:39.996Z,3036.00
2017-09-09T08:00:39.974Z,2736.00
2017-09-09T08:01:39.974Z,2364.00
2017-09-09T08:02:39.957Z,1792.00
2017-09-09T08:03:39.932Z,1472.00
2017-09-09T08:04:39.926Z,1388.00
2017-09-09T08:05:39.910Z,1192.00
2017-09-09T08:06:39.897Z,1012.00
2017-09-09T08:07:39.887Z,924.00
2017-09-09T08:08:39.866Z,1048.00
2017-09-09T08:09:39.855Z,1288.00
2017-09-09T08:10:39.846Z,1940.00
2017-09-09T08:11:39.829Z,2908.00
2017-09-09T08:12:39.820Z,3468.00
2017-09-09T08:13:39.804Z,4056.00
2017-09-09T08:14:39.799Z,4228.00
2017-09-09T08:15:39.776Z,4816.00
2017-09-09T08:16:39.770Z,4216.00
2017-09-09T08:17:39.748Z,2356.00
2017-09-09T08:18:39.736Z,2076.00
2017-09-09T08:19:39.730Z,2064.00
2017-09-09T08:20:39.705Z,1972.00
2017-09-09T08:21:39.689Z,1720.00
2017-09-09T08:22:39.683Z,2640.00
2017-09-09T08:23:39.673Z,2540.00
2017-09-09T08:24:39.660Z,1752.00
2017-09-09T08:25:39.641Z,1576.00
2017-09-09T08:26:39.622Z,3196.00
2017-09-09T08:27:39.607Z,4048.00
2017-09-09T08:28:39.594Z,4512.00
2017-09-09T08:29:39.581Z,5544.00
2017-09-09T08:30:39.571Z,7020.00
2017-09-09T08:31:39.556Z,8128.00
2017-09-09T08:32:39.542Z,8992.00
2017-09-09T08:33:39.527Z,8132.00
2017-09-09T08:34:39.517Z,7908.00
2017-09-09T08:35:39.501Z,8516.00
2017-09-09T08:36:39.488Z,7576.00
2017-09-09T08:37:39.468Z,7128.00
2017-09-09T08:38:39.465Z,6612.00
2017-09-09T08:39:39.447Z,6256.00
2017-09-09T08:40:39.433Z,6316.00
2017-09-09T08:41:39.417Z,7140.00
2017-09-09T08:42:39.409Z,7648.00
2017-09-09T08:43:39.390Z,8196.00
2017-09-09T08:44:39.391Z,8284.00
2017-09-09T08:45:39.370Z,7948.00
2017-09-09T08:46:39.349Z,7692.00
2017-09-09T08:47:39.336Z,7192.00
2017-09-09T08:48:39.322Z,6820.00
2017-09-09T08:49:39.308Z,6764.00
2017-09-09T08:50:39.293Z,7116.00
2017-09-09T08:51:39.297Z,7376.00
2017-09-09T08:52:39.282Z,7440.00
2017-09-09T08:53:39.252Z,7720.00
2017-09-09T08:54:39.245Z,8420.00
2017-09-09T08:55:39.226Z,8300.00
2017-09-09T08:56:39.215Z,8172.00
2017-09-09T08:57:39.199Z,8796.00
2017-09-09T08:58:39.187Z,8264.00
2017-09-09T08:59:39.183Z,7796.00
2017-09-09T09:00:39.158Z,8084.00
2017-09-09T09:01:39.155Z,8428.00
2017-09-09T09:02:39.129Z,8956.00
2017-09-09T09:03:39.117Z,9208.00
2017-09-09T09:04:39.110Z,9464.00
2017-09-09T09:05:39.081Z,9812.00
2017-09-09T09:06:39.072Z,9164.00
2017-09-09T09:07:39.068Z,8684.00
2017-09-09T09:08:39.042Z,7888.00
2017-09-09T09:09:39.039Z,7228.00
2017-09-09T09:10:39.021Z,7932.00
2017-09-09T09:11:39.009Z,8512.00
2017-09-09T09:12:38.989Z,8648.00
2017-09-09T09:13:38.977Z,9172.00
2017-09-09T09:14:38.964Z,10380.00
2017-09-09T09:15:38.954Z,11968.00
2017-09-09T09:16:38.938Z,12268.00
2017-09-09T09:17:38.929Z,11800.00
2017-09-09T09:18:38.913Z,12004.00
2017-09-09T09:19:38.896Z,13484.00
2017-09-09T09:20:38.886Z,13364.00
2017-09-09T09:21:38.871Z,13132.00
2017-09-09T09:22:38.855Z,13916.00
2017-09-09T09:23:38.839Z,13308.00
2017-09-09T09:24:38.832Z,13844.00
2017-09-09T09:25:38.825Z,12228.00
2017-09-09T09:26:38.806Z,12428.00
2017-09-09T09:27:38.790Z,15264.00
2017-09-09T09:28:38.781Z,12688.00
2017-09-09T09:29:38.761Z,10092.00
2017-09-09T09:30:38.755Z,7836.00
2017-09-09T09:31:38.734Z,5792.00
2017-09-09T09:32:38.725Z,5412.00
2017-09-09T09:33:38.704Z,6648.00
2017-09-09T09:34:38.697Z,7372.00
2017-09-09T09:35:38.682Z,7156.00
2017-09-09T09:36:39.431Z,8012.00
2017-09-09T09:37:38.661Z,7552.00
2017-09-09T09:38:38.698Z,6300.00
2017-09-09T09:39:38.633Z,5800.00
2017-09-09T09:40:38.614Z,5076.00
2017-09-09T09:41:38.603Z,4676.00
2017-09-09T09:42:38.626Z,3992.00
2017-09-09T09:43:38.579Z,5004.00
2017-09-09T09:44:38.562Z,5932.00
2017-09-09T09:45:38.550Z,6656.00
2017-09-09T09:46:38.545Z,7616.00
2017-09-09T09:47:38.531Z,9704.00
2017-09-09T09:48:38.516Z,11776.00
2017-09-09T09:49:38.495Z,12052.00
2017-09-09T09:50:38.481Z,13600.00
2017-09-09T09:51:38.472Z,14332.00
2017-09-09T09:52:38.463Z,14232.00
2017-09-09T09:53:38.443Z,12308.00
2017-09-09T09:54:38.438Z,12720.00
2017-09-09T09:55:38.421Z,11760.00
2017-09-09T09:56:38.404Z,10532.00
2017-09-09T09:57:38.388Z,10688.00
2017-09-09T09:58:38.376Z,10448.00
2017-09-09T09:59:38.367Z,9464.00
2017-09-09T10:00:38.347Z,10240.00
2017-09-09T10:01:38.341Z,11480.00
2017-09-09T10:02:38.326Z,8844.00
2017-09-09T10:03:38.313Z,7572.00
2017-09-09T10:04:38.336Z,8356.00
2017-09-09T10:05:38.294Z,11172.00
2017-09-09T10:06:38.273Z,9980.00
2017-09-09T10:07:38.264Z,10512.00
2017-09-09T10:08:38.248Z,11604.00
2017-09-09T10:09:38.232Z,11764.00
2017-09-09T10:10:38.221Z,12444.00
2017-09-09T10:11:38.225Z,13044.00
2017-09-09T10:12:38.194Z,18016.00
2017-09-09T10:13:38.190Z,10656.00
2017-09-09T10:14:38.172Z,12508.00
2017-09-09T10:15:38.152Z,12332.00
2017-09-09T10:16:38.146Z,13920.00
2017-09-09T10:17:38.129Z,14504.00
2017-09-09T10:18:38.127Z,13132.00
2017-09-09T10:19:38.098Z,14028.00
2017-09-09T10:20:38.096Z,14208.00
2017-09-09T10:21:38.075Z,14032.00
2017-09-09T10:22:38.066Z,15232.00
2017-09-09T10:23:38.050Z,12052.00
2017-09-09T10:24:38.039Z,31904.00
2017-09-09T10:25:38.031Z,16768.00
2017-09-09T10:26:38.017Z,50464.00
2017-09-09T10:27:38.007Z,21536.00
2017-09-09T10:28:37.988Z,20704.00
2017-09-09T10:29:37.988Z,21568.00
2017-09-09T10:30:37.962Z,18176.00
2017-09-09T10:31:37.950Z,10880.00
2017-09-09T10:32:37.937Z,9512.00
2017-09-09T10:33:37.924Z,11668.00
2017-09-09T10:34:37.909Z,16992.00
2017-09-09T10:35:37.898Z,43456.00
2017-09-09T10:36:37.876Z,11588.00
2017-09-09T10:37:37.866Z,12296.00
2017-09-09T10:38:37.860Z,11568.00
2017-09-09T10:39:37.855Z,11556.00
2017-09-09T10:40:37.837Z,11916.00
2017-09-09T10:41:37.834Z,8924.00
2017-09-09T10:42:37.804Z,11872.00
2017-09-09T10:43:37.794Z,18368.00
2017-09-09T10:44:37.784Z,11908.00
2017-09-09T10:45:37.769Z,11096.00
2017-09-09T10:46:37.769Z,10672.00
2017-09-09T10:47:37.743Z,12660.00
2017-09-09T10:48:37.734Z,15520.00
2017-09-09T10:49:37.716Z,16096.00
2017-09-09T10:50:37.709Z,14612.00
2017-09-09T10:51:37.689Z,12824.00
2017-09-09T10:52:37.679Z,12736.00
2017-09-09T10:53:37.671Z,11892.00
2017-09-09T10:54:37.657Z,9860.00
2017-09-09T10:55:37.635Z,8744.00
2017-09-09T10:56:37.626Z,9180.00
2017-09-09T10:57:37.613Z,8972.00
2017-09-09T10:58:37.603Z,10440.00
2017-09-09T10:59:37.588Z,14132.00
2017-09-09T11:00:37.583Z,13792.00
2017-09-09T11:01:37.562Z,15584.00
2017-09-09T11:02:37.557Z,14552.00
2017-09-09T11:03:37.536Z,12128.00
2017-09-09T11:04:37.532Z,10208.00
2017-09-09T11:05:37.515Z,11328.00
2017-09-09T11:06:37.508Z,11848.00
2017-09-09T11:07:37.491Z,14876.00
2017-09-09T11:08:37.484Z,18432.00
2017-09-09T11:09:37.466Z,13172.00
2017-09-09T11:10:37.453Z,12088.00
2017-09-09T11:11:37.443Z,11996.00
2017-09-09T11:12:37.424Z,11144.00
2017-09-09T11:13:37.416Z,11244.00
2017-09-09T11:14:37.409Z,17728.00
2017-09-09T11:15:37.392Z,11280.00
2017-09-09T11:16:37.375Z,11120.00
2017-09-09T11:17:37.377Z,12932.00
2017-09-09T11:18:37.384Z,13100.00
2017-09-09T11:19:37.349Z,14120.00
2017-09-09T11:20:37.335Z,16800.00
2017-09-09T11:21:37.313Z,21248.00
2017-09-09T11:22:37.319Z,22720.00
2017-09-09T11:23:37.283Z,18560.00
2017-09-09T11:24:37.275Z,20448.00
2017-09-09T11:25:37.283Z,13888.00
2017-09-09T11:26:37.257Z,9232.00
2017-09-09T11:27:37.244Z,7604.00
2017-09-09T11:28:37.235Z,7408.00
2017-09-09T11:29:37.208Z,6320.00
2017-09-09T11:30:37.203Z,5600.00
2017-09-09T11:31:37.191Z,5668.00
2017-09-09T11:32:37.173Z,5648.00
2017-09-09T11:33:37.166Z,6336.00
2017-09-09T11:34:37.156Z,5868.00
2017-09-09T11:35:37.146Z,5776.00
2017-09-09T11:36:37.124Z,7252.00
2017-09-09T11:37:37.108Z,7720.00
2017-09-09T11:38:37.099Z,7056.00
2017-09-09T11:39:37.090Z,6052.00
2017-09-09T11:40:37.080Z,6804.00
2017-09-09T11:41:37.060Z,6656.00
2017-09-09T11:42:37.045Z,6328.00
2017-09-09T11:43:37.032Z,6368.00
2017-09-09T11:44:37.025Z,6804.00
2017-09-09T11:45:37.010Z,6424.00
2017-09-09T11:46:36.998Z,5272.00
2017-09-09T11:47:36.985Z,5172.00
2017-09-09T11:48:36.975Z,6232.00
2017-09-09T11:49:36.962Z,8340.00
2017-09-09T11:50:36.949Z,12944.00
2017-09-09T11:51:36.930Z,14960.00
2017-09-09T11:52:36.930Z,12912.00
2017-09-09T11:53:36.912Z,14484.00
2017-09-09T11:54:36.904Z,31264.00
2017-09-09T11:55:36.888Z,27360.00
2017-09-09T11:56:36.878Z,87232.00
2017-09-09T11:57:36.866Z,18176.00
2017-09-09T11:58:36.846Z,19520.00
2017-09-09T11:59:36.835Z,20320.00
2017-09-09T12:00:36.827Z,24800.00
2017-09-09T12:01:36.804Z,41568.00
2017-09-09T12:02:36.798Z,65952.00
2017-09-09T12:03:36.789Z,68448.00
2017-09-09T12:04:36.775Z,63776.00
2017-09-09T12:05:36.775Z,66912.00
2017-09-09T12:06:36.750Z,28928.00
2017-09-09T12:07:36.737Z,40864.00
2017-09-09T12:08:36.733Z,50720.00
2017-09-09T12:09:36.756Z,48640.00
2017-09-09T12:10:36.701Z,41376.00
2017-09-09T12:11:36.690Z,12184.00
2017-09-09T12:12:36.693Z,13988.00
2017-09-09T12:13:36.663Z,14632.00
2017-09-09T12:14:36.657Z,33888.00
2017-09-09T12:15:36.644Z,16896.00
2017-09-09T12:16:36.638Z,9032.00
2017-09-09T12:17:36.629Z,7332.00
2017-09-09T12:18:36.610Z,8124.00
2017-09-09T12:19:36.593Z,9452.00
2017-09-09T12:20:36.578Z,12816.00
2017-09-09T12:21:36.566Z,13240.00
2017-09-09T12:22:36.564Z,8044.00
2017-09-09T12:23:36.543Z,6308.00
2017-09-09T12:24:36.529Z,4232.00
2017-09-09T12:25:36.534Z,3400.00
2017-09-09T12:26:36.508Z,3420.00
2017-09-09T12:27:36.498Z,3848.00
2017-09-09T12:28:36.485Z,4312.00
2017-09-09T12:29:36.474Z,5324.00
2017-09-09T12:30:36.456Z,6180.00
2017-09-09T12:31:36.448Z,7560.00
2017-09-09T12:32:36.430Z,7904.00